NCAR-RAP Real-Time Weather Data

Output produced by METARs form (10 April 2020  07:16 UTC)
found at http://weather.rap.ucar.edu/surface/
 
KBFL 100654Z AUTO 03004KT 10SM CLR 09/07 A3005 RMK AO2 SLP173 T00940072
KBFL 100554Z 05004KT 10SM BKN100 10/08 A3005 RMK AO2 SLP174 60001 T01000078 10144 20100 51002
KBFL 100454Z 00000KT 10SM FEW080 OVC100 12/07 A3005 RMK AO2 SLP173 T01220072
KBFL 100354Z 01003KT 10SM OVC090 11/09 A3006 RMK AO2 SLP176 T01110089
KBFL 100254Z 32003KT 10SM SCT065 OVC090 12/08 A3004 RMK AO2 RAE33 SLP172 P0001 60001 T01170083 51007
KBFL 100154Z 27005KT 10SM -RA SCT065 OVC080 12/09 A3004 RMK AO2 SLP170 P0000 T01170089
KBFL 100054Z 26006KT 10SM -RA OVC065 13/08 A3003 RMK AO2 SLP166 P0000 T01330078
KBFL 092354Z 17003KT 10SM -RA OVC070 14/06 A3002 RMK AO2 SLP164 P0000 60001 T01390056 10150 20106 56014
KBFL 092254Z 21007KT 10SM -RA OVC065 14/06 A3003 RMK AO2 RAB25 SLP167 P0000 T01390061
KBFL 092154Z 13009KT 10SM OVC055 15/05 A3004 RMK AO2 SLP172 T01500050
KBFL 092054Z 14011KT 10SM BKN060 OVC075 14/06 A3006 RMK AO2 RAE51 SLP178 P0000 60001 T01440056 58019
KBFL 091954Z 13012KT 10SM -RA SCT055 OVC070 13/07 A3008 RMK AO2 SLP185 P0000 T01330067
KBFL 091854Z 12010KT 10SM -RA OVC065 12/07 A3011 RMK AO2 SLP194 P0001 T01170072
KBFL 091754Z 11009KT 9SM -RA FEW045 OVC055 11/06 A3012 RMK AO2 SLP199 P0003 60019 T01060061 10106 20094 51013
KBFL 091654Z 11007KT 10SM -RA BKN055 OVC065 10/07 A3011 RMK AO2 SLP194 P0006 T01000067
KBFL 091554Z 10005KT 6SM -RA OVC050 09/06 A3010 RMK AO2 SLP192 P0007 T00940061
KBFL 091454Z 00000KT 6SM -RA OVC055 09/06 A3008 RMK AO2 SLP186 P0002 60003 T00940061 53013
KBFL 091354Z 08004KT 10SM -RA OVC048 09/06 A3006 RMK AO2 SLP179 P0001 T00940056
KBFL 091254Z 13005KT 10SM -RA BKN046 BKN055 OVC080 09/06 A3005 RMK AO2 RAB23 SLP173 P0000 T00940061
KBFL 091154Z AUTO 08006KT 10SM OVC045 09/06 A3004 RMK AO2 RAB1057E36 SLP172 P0000 60013 70070 T00940061 10100 20089 50001
KBFL 091054Z AUTO 11005KT 10SM OVC043 10/06 A3005 RMK AO2 RAE29 SLP174 P0000 T01000061